sensor_id;sensor_type;location;lat;lon;timestamp;pressure;altitude;pressure_sealevel;temperature;humidity
62617;BME280;62539;51.190;6.808;2023-12-07T00:02:07;101663.28;;;16.09;59.87
62617;BME280;62539;51.190;6.808;2023-12-07T00:04:32;101667.66;;;16.07;60.12
62617;BME280;62539;51.190;6.808;2023-12-07T00:06:58;101659.81;;;16.06;60.08
62617;BME280;62539;51.190;6.808;2023-12-07T00:09:23;101665.06;;;16.04;59.94
62617;BME280;62539;51.190;6.808;2023-12-07T00:11:48;101661.59;;;16.02;60.22
62617;BME280;62539;51.190;6.808;2023-12-07T00:14:14;101663.38;;;16.00;60.03
62617;BME280;62539;51.190;6.808;2023-12-07T00:16:39;101664.25;;;15.97;60.03
62617;BME280;62539;51.190;6.808;2023-12-07T00:19:05;101666.91;;;15.96;60.18
62617;BME280;62539;51.190;6.808;2023-12-07T00:21:30;101668.66;;;15.94;60.01
62617;BME280;62539;51.190;6.808;2023-12-07T00:23:56;101671.28;;;15.92;60.41
62617;BME280;62539;51.190;6.808;2023-12-07T00:26:21;101666.09;;;15.89;60.24
62617;BME280;62539;51.190;6.808;2023-12-07T00:28:47;101666.09;;;15.87;60.21
62617;BME280;62539;51.190;6.808;2023-12-07T00:31:12;101656.47;;;15.86;60.15
62617;BME280;62539;51.190;6.808;2023-12-07T00:33:38;101659.97;;;15.85;60.13
62617;BME280;62539;51.190;6.808;2023-12-07T00:36:03;101665.25;;;15.82;60.08
62617;BME280;62539;51.190;6.808;2023-12-07T00:38:29;101658.28;;;15.81;59.97
62617;BME280;62539;51.190;6.808;2023-12-07T00:40:56;101660.03;;;15.79;60.31
62617;BME280;62539;51.190;6.808;2023-12-07T00:43:21;101658.31;;;15.78;60.22
62617;BME280;62539;51.190;6.808;2023-12-07T00:45:47;101654.81;;;15.76;60.35
62617;BME280;62539;51.190;6.808;2023-12-07T00:48:12;101652.25;;;15.75;60.33
62617;BME280;62539;51.190;6.808;2023-12-07T00:50:38;101654.00;;;15.72;60.41
62617;BME280;62539;51.190;6.808;2023-12-07T00:53:03;101661.84;;;15.71;60.27
62617;BME280;62539;51.190;6.808;2023-12-07T00:55:29;101663.63;;;15.70;60.45
62617;BME280;62539;51.190;6.808;2023-12-07T00:57:54;101658.38;;;15.69;60.13
62617;BME280;62539;51.190;6.808;2023-12-07T01:00:19;101656.63;;;15.68;60.46
62617;BME280;62539;51.190;6.808;2023-12-07T01:02:45;101668.88;;;15.66;60.42
62617;BME280;62539;51.190;6.808;2023-12-07T01:05:11;101665.38;;;15.67;59.94
62617;BME280;62539;51.190;6.808;2023-12-07T01:07:36;101672.34;;;15.68;59.74
62617;BME280;62539;51.190;6.808;2023-12-07T01:10:02;101661.84;;;15.71;59.41
62617;BME280;62539;51.190;6.808;2023-12-07T01:12:29;101663.53;;;15.78;59.00
62617;BME280;62539;51.190;6.808;2023-12-07T01:14:54;101669.56;;;15.86;58.91
62617;BME280;62539;51.190;6.808;2023-12-07T01:17:20;101666.88;;;15.97;58.59
62617;BME280;62539;51.190;6.808;2023-12-07T01:19:45;101675.53;;;16.07;58.50
62617;BME280;62539;51.190;6.808;2023-12-07T01:22:11;101667.56;;;16.15;58.19
62617;BME280;62539;51.190;6.808;2023-12-07T01:24:36;101673.63;;;16.22;57.65
62617;BME280;62539;51.190;6.808;2023-12-07T01:27:01;101674.47;;;16.24;58.21
62617;BME280;62539;51.190;6.808;2023-12-07T01:29:27;101663.13;;;16.25;58.04
62617;BME280;62539;51.190;6.808;2023-12-07T01:31:52;101663.13;;;16.25;57.72
62617;BME280;62539;51.190;6.808;2023-12-07T01:34:18;101667.47;;;16.24;57.78
62617;BME280;62539;51.190;6.808;2023-12-07T01:36:44;101672.75;;;16.23;57.84
62617;BME280;62539;51.190;6.808;2023-12-07T01:39:09;101667.50;;;16.21;57.91
62617;BME280;62539;51.190;6.808;2023-12-07T01:41:38;101677.13;;;16.21;57.78
62617;BME280;62539;51.190;6.808;2023-12-07T01:44:04;101683.25;;;16.18;57.64
62617;BME280;62539;51.190;6.808;2023-12-07T01:46:30;101677.16;;;16.16;57.57
62617;BME280;62539;51.190;6.808;2023-12-07T01:48:56;101687.66;;;16.14;57.91
62617;BME280;62539;51.190;6.808;2023-12-07T01:51:22;101688.53;;;16.13;58.12
62617;BME280;62539;51.190;6.808;2023-12-07T01:53:48;101683.31;;;16.13;58.00
62617;BME280;62539;51.190;6.808;2023-12-07T01:56:15;101685.03;;;16.14;58.01
62617;BME280;62539;51.190;6.808;2023-12-07T01:58:41;101694.56;;;16.22;57.49
62617;BME280;62539;51.190;6.808;2023-12-07T02:01:07;101693.59;;;16.30;57.51
62617;BME280;62539;51.190;6.808;2023-12-07T02:03:34;101693.53;;;16.37;57.42
62617;BME280;62539;51.190;6.808;2023-12-07T02:05:59;101699.63;;;16.40;57.17
62617;BME280;62539;51.190;6.808;2023-12-07T02:08:26;101696.13;;;16.41;57.19
62617;BME280;62539;51.190;6.808;2023-12-07T02:10:52;101703.97;;;16.40;57.21
62617;BME280;62539;51.190;6.808;2023-12-07T02:13:18;101710.09;;;16.40;57.02
62617;BME280;62539;51.190;6.808;2023-12-07T02:15:45;101707.47;;;16.39;57.12
62617;BME280;62539;51.190;6.808;2023-12-07T02:18:20;101708.41;;;16.36;57.44
62617;BME280;62539;51.190;6.808;2023-12-07T02:21:16;101713.63;;;16.36;57.48
62617;BME280;62539;51.190;6.808;2023-12-07T02:23:49;101708.41;;;16.35;57.36
62617;BME280;62539;51.190;6.808;2023-12-07T02:26:18;101706.69;;;16.32;57.23
62617;BME280;62539;51.190;6.808;2023-12-07T02:28:46;101712.81;;;16.31;57.27
62617;BME280;62539;51.190;6.808;2023-12-07T02:31:12;101718.94;;;16.30;56.95
62617;BME280;62539;51.190;6.808;2023-12-07T02:33:38;101717.19;;;16.29;57.63
62617;BME280;62539;51.190;6.808;2023-12-07T02:36:04;101722.41;;;16.32;57.28
62617;BME280;62539;51.190;6.808;2023-12-07T02:38:30;101724.97;;;16.38;57.31
62617;BME280;62539;51.190;6.808;2023-12-07T02:40:56;101724.88;;;16.46;56.92
62617;BME280;62539;51.190;6.808;2023-12-07T02:43:24;101724.81;;;16.54;56.89
62617;BME280;62539;51.190;6.808;2023-12-07T02:45:50;101716.88;;;16.60;56.58
62617;BME280;62539;51.190;6.808;2023-12-07T02:48:16;101722.09;;;16.63;56.61
62617;BME280;62539;51.190;6.808;2023-12-07T02:50:42;101722.94;;;16.65;56.36
62617;BME280;62539;51.190;6.808;2023-12-07T02:53:08;101719.47;;;16.63;56.71
62617;BME280;62539;51.190;6.808;2023-12-07T02:55:34;101709.88;;;16.60;56.82
62617;BME280;62539;51.190;6.808;2023-12-07T02:57:59;101702.03;;;16.57;56.74
62617;BME280;62539;51.190;6.808;2023-12-07T03:00:25;101701.19;;;16.55;56.69
62617;BME280;62539;51.190;6.808;2023-12-07T03:02:50;101707.31;;;16.54;56.67
62617;BME280;62539;51.190;6.808;2023-12-07T03:05:16;101699.50;;;16.53;56.92
62617;BME280;62539;51.190;6.808;2023-12-07T03:07:41;101704.75;;;16.50;56.51
62617;BME280;62539;51.190;6.808;2023-12-07T03:10:07;101694.31;;;16.46;56.74
62617;BME280;62539;51.190;6.808;2023-12-07T03:12:32;101693.47;;;16.44;57.19
62617;BME280;62539;51.190;6.808;2023-12-07T03:14:58;101692.59;;;16.45;57.06
62617;BME280;62539;51.190;6.808;2023-12-07T03:17:23;101696.91;;;16.50;57.08
62617;BME280;62539;51.190;6.808;2023-12-07T03:19:49;101698.56;;;16.55;56.78
62617;BME280;62539;51.190;6.808;2023-12-07T03:22:14;101694.16;;;16.62;56.60
62617;BME280;62539;51.190;6.808;2023-12-07T03:24:45;101692.34;;;16.67;56.53
62617;BME280;62539;51.190;6.808;2023-12-07T03:27:12;101688.81;;;16.71;56.28
62617;BME280;62539;51.190;6.808;2023-12-07T03:29:37;101691.38;;;16.74;56.05
62617;BME280;62539;51.190;6.808;2023-12-07T03:32:03;101692.28;;;16.73;56.32
62617;BME280;62539;51.190;6.808;2023-12-07T03:34:28;101687.06;;;16.70;56.02
62617;BME280;62539;51.190;6.808;2023-12-07T03:36:54;101687.09;;;16.67;55.96
62617;BME280;62539;51.190;6.808;2023-12-07T03:39:19;101689.72;;;16.66;56.62
62617;BME280;62539;51.190;6.808;2023-12-07T03:41:47;101689.75;;;16.63;55.95
62617;BME280;62539;51.190;6.808;2023-12-07T03:44:13;101686.31;;;16.59;56.57
62617;BME280;62539;51.190;6.808;2023-12-07T03:46:39;101689.84;;;16.56;56.47
62617;BME280;62539;51.190;6.808;2023-12-07T03:49:05;101690.75;;;16.52;56.33
62617;BME280;62539;51.190;6.808;2023-12-07T03:51:30;101689.00;;;16.53;56.83
62617;BME280;62539;51.190;6.808;2023-12-07T03:53:55;101694.28;;;16.50;57.16
62617;BME280;62539;51.190;6.808;2023-12-07T03:56:25;101688.16;;;16.49;56.81
62617;BME280;62539;51.190;6.808;2023-12-07T03:58:52;101697.78;;;16.49;56.94
62617;BME280;62539;51.190;6.808;2023-12-07T04:01:17;101696.91;;;16.48;56.84
62617;BME280;62539;51.190;6.808;2023-12-07T04:03:46;101699.56;;;16.46;56.82
62617;BME280;62539;51.190;6.808;2023-12-07T04:06:11;101696.94;;;16.45;56.76
62617;BME280;62539;51.190;6.808;2023-12-07T04:08:37;101691.75;;;16.43;57.33
62617;BME280;62539;51.190;6.808;2023-12-07T04:11:02;101682.09;;;16.45;56.71
62617;BME280;62539;51.190;6.808;2023-12-07T04:13:28;101690.78;;;16.51;56.85
62617;BME280;62539;51.190;6.808;2023-12-07T04:15:53;101683.75;;;16.56;56.56
62617;BME280;62539;51.190;6.808;2023-12-07T04:18:18;101685.41;;;16.63;56.66
62617;BME280;62539;51.190;6.808;2023-12-07T04:20:44;101687.06;;;16.69;56.27
62617;BME280;62539;51.190;6.808;2023-12-07T04:23:09;101692.28;;;16.73;56.06
62617;BME280;62539;51.190;6.808;2023-12-07T04:25:35;101689.63;;;16.77;56.21
62617;BME280;62539;51.190;6.808;2023-12-07T04:28:00;101700.94;;;16.79;55.83
62617;BME280;62539;51.190;6.808;2023-12-07T04:30:26;101702.72;;;16.77;55.73
62617;BME280;62539;51.190;6.808;2023-12-07T04:32:51;101703.59;;;16.75;56.00
62617;BME280;62539;51.190;6.808;2023-12-07T04:35:16;101710.56;;;16.75;55.91
62617;BME280;62539;51.190;6.808;2023-12-07T04:37:42;101709.69;;;16.78;56.09
62617;BME280;62539;51.190;6.808;2023-12-07T04:40:08;101710.47;;;16.84;55.88
62617;BME280;62539;51.190;6.808;2023-12-07T04:42:35;101712.13;;;16.93;55.77
62617;BME280;62539;51.190;6.808;2023-12-07T04:45:01;101707.69;;;17.01;55.61
62617;BME280;62539;51.190;6.808;2023-12-07T04:47:26;101707.56;;;17.11;55.41
62617;BME280;62539;51.190;6.808;2023-12-07T04:49:52;101712.69;;;17.20;55.10
62617;BME280;62539;51.190;6.808;2023-12-07T04:52:18;101716.06;;;17.28;55.02
62617;BME280;62539;51.190;6.808;2023-12-07T04:54:44;101722.06;;;17.37;54.66
62617;BME280;62539;51.190;6.808;2023-12-07T04:57:09;101722.81;;;17.45;54.48
62617;BME280;62539;51.190;6.808;2023-12-07T04:59:35;101717.47;;;17.51;54.07
62617;BME280;62539;51.190;6.808;2023-12-07T05:02:00;101727.00;;;17.58;54.13
62617;BME280;62539;51.190;6.808;2023-12-07T05:04:27;101723.38;;;17.66;54.18
62617;BME280;62539;51.190;6.808;2023-12-07T05:06:52;101729.38;;;17.74;53.95
62617;BME280;62539;51.190;6.808;2023-12-07T05:09:18;101724.03;;;17.80;53.54
62617;BME280;62539;51.190;6.808;2023-12-07T05:11:43;101735.31;;;17.85;53.52
62617;BME280;62539;51.190;6.808;2023-12-07T05:14:10;101732.59;;;17.91;53.37
62617;BME280;62539;51.190;6.808;2023-12-07T05:16:36;101736.88;;;17.99;53.31
62617;BME280;62539;51.190;6.808;2023-12-07T05:19:01;101735.94;;;18.03;53.24
62617;BME280;62539;51.190;6.808;2023-12-07T05:21:27;101734.97;;;18.09;53.12
62617;BME280;62539;51.190;6.808;2023-12-07T05:23:53;101734.91;;;18.13;53.01
62617;BME280;62539;51.190;6.808;2023-12-07T05:26:18;101733.94;;;18.17;52.89
62617;BME280;62539;51.190;6.808;2023-12-07T05:28:43;101740.84;;;18.23;52.89
62617;BME280;62539;51.190;6.808;2023-12-07T05:31:18;101749.56;;;18.27;52.68
62617;BME280;62539;51.190;6.808;2023-12-07T05:33:44;101748.63;;;18.29;52.87
62617;BME280;62539;51.190;6.808;2023-12-07T05:36:09;101752.13;;;18.30;52.57
62617;BME280;62539;51.190;6.808;2023-12-07T05:38:35;101757.38;;;18.30;52.71
62617;BME280;62539;51.190;6.808;2023-12-07T05:41:00;101742.50;;;18.29;52.73
62617;BME280;62539;51.190;6.808;2023-12-07T05:43:26;101736.38;;;18.30;52.72
62617;BME280;62539;51.190;6.808;2023-12-07T05:45:51;101747.75;;;18.29;52.70
62617;BME280;62539;51.190;6.808;2023-12-07T05:48:16;101734.59;;;18.30;52.66
62617;BME280;62539;51.190;6.808;2023-12-07T05:50:42;101730.16;;;18.34;52.63
62617;BME280;62539;51.190;6.808;2023-12-07T05:53:07;101726.59;;;18.38;52.64
62617;BME280;62539;51.190;6.808;2023-12-07T05:55:34;101734.41;;;18.41;52.53
62617;BME280;62539;51.190;6.808;2023-12-07T05:57:59;101727.38;;;18.43;52.46
62617;BME280;62539;51.190;6.808;2023-12-07T06:00:25;101731.72;;;18.44;52.55
62617;BME280;62539;51.190;6.808;2023-12-07T06:02:50;101723.00;;;18.42;52.43
62617;BME280;62539;51.190;6.808;2023-12-07T06:05:16;101726.53;;;18.41;52.40
62617;BME280;62539;51.190;6.808;2023-12-07T06:07:41;101717.75;;;18.42;52.44
62617;BME280;62539;51.190;6.808;2023-12-07T06:10:07;101717.75;;;18.42;52.51
62617;BME280;62539;51.190;6.808;2023-12-07T06:12:32;101718.59;;;18.44;52.66
62617;BME280;62539;51.190;6.808;2023-12-07T06:14:58;101711.50;;;18.48;52.44
62617;BME280;62539;51.190;6.808;2023-12-07T06:17:23;101712.31;;;18.51;52.37
62617;BME280;62539;51.190;6.808;2023-12-07T06:19:49;101708.78;;;18.53;52.22
62617;BME280;62539;51.190;6.808;2023-12-07T06:22:14;101714.91;;;18.53;52.26
62617;BME280;62539;51.190;6.808;2023-12-07T06:24:40;101708.78;;;18.53;52.19
62617;BME280;62539;51.190;6.808;2023-12-07T06:27:05;101700.06;;;18.50;52.32
62617;BME280;62539;51.190;6.808;2023-12-07T06:29:31;101701.88;;;18.48;52.06
62617;BME280;62539;51.190;6.808;2023-12-07T06:31:57;101701.94;;;18.45;52.40
62617;BME280;62539;51.190;6.808;2023-12-07T06:34:22;101705.44;;;18.44;52.02
62617;BME280;62539;51.190;6.808;2023-12-07T06:36:48;101703.66;;;18.46;52.28
62617;BME280;62539;51.190;6.808;2023-12-07T06:39:13;101701.88;;;18.48;52.27
62617;BME280;62539;51.190;6.808;2023-12-07T06:41:42;101698.28;;;18.53;52.15
62617;BME280;62539;51.190;6.808;2023-12-07T06:44:07;101696.50;;;18.55;52.25
62617;BME280;62539;51.190;6.808;2023-12-07T06:46:33;101699.06;;;18.56;52.16
62617;BME280;62539;51.190;6.808;2023-12-07T06:48:58;101690.25;;;18.59;51.70
62617;BME280;62539;51.190;6.808;2023-12-07T06:51:25;101703.31;;;18.62;51.51
62617;BME280;62539;51.190;6.808;2023-12-07T06:53:50;101701.53;;;18.64;51.61
62617;BME280;62539;51.190;6.808;2023-12-07T06:56:16;101697.09;;;18.66;51.73
62617;BME280;62539;51.190;6.808;2023-12-07T06:58:41;101697.09;;;18.66;51.34
62617;BME280;62539;51.190;6.808;2023-12-07T07:01:07;101698.91;;;18.64;51.67
62617;BME280;62539;51.190;6.808;2023-12-07T07:03:32;101703.31;;;18.62;51.79
62617;BME280;62539;51.190;6.808;2023-12-07T07:05:58;101698.13;;;18.59;52.06
62617;BME280;62539;51.190;6.808;2023-12-07T07:08:25;101699.94;;;18.57;52.24
62617;BME280;62539;51.190;6.808;2023-12-07T07:10:50;101700.81;;;18.57;52.51
62617;BME280;62539;51.190;6.808;2023-12-07T07:13:15;101692.03;;;18.57;52.59
62617;BME280;62539;51.190;6.808;2023-12-07T07:15:42;101695.50;;;18.59;52.64
62617;BME280;62539;51.190;6.808;2023-12-07T07:18:11;101698.13;;;18.59;52.51
62617;BME280;62539;51.190;6.808;2023-12-07T07:20:37;101696.34;;;18.61;52.99
62617;BME280;62539;51.190;6.808;2023-12-07T07:23:02;101699.00;;;18.59;53.06
62617;BME280;62539;51.190;6.808;2023-12-07T07:25:28;101706.84;;;18.61;53.46
62617;BME280;62539;51.190;6.808;2023-12-07T07:27:53;101707.69;;;18.63;53.10
62617;BME280;62539;51.190;6.808;2023-12-07T07:30:20;101705.91;;;18.65;53.31
62617;BME280;62539;51.190;6.808;2023-12-07T07:32:46;101691.84;;;18.68;53.81
62617;BME280;62539;51.190;6.808;2023-12-07T07:35:12;101690.84;;;18.73;53.87
62617;BME280;62539;51.190;6.808;2023-12-07T07:37:40;101697.88;;;18.73;53.22
62617;BME280;62539;51.190;6.808;2023-12-07T07:40:07;101703.97;;;18.73;53.52
62617;BME280;62539;51.190;6.808;2023-12-07T07:42:37;101709.16;;;18.76;53.32
62617;BME280;62539;51.190;6.808;2023-12-07T07:45:04;101701.22;;;18.79;53.48
62617;BME280;62539;51.190;6.808;2023-12-07T07:47:31;101708.16;;;18.84;53.20
62617;BME280;62539;51.190;6.808;2023-12-07T07:49:57;101706.34;;;18.87;53.14
62617;BME280;62539;51.190;6.808;2023-12-07T07:52:23;101695.78;;;18.89;53.46
62617;BME280;62539;51.190;6.808;2023-12-07T07:54:49;101693.13;;;18.90;52.74
62617;BME280;62539;51.190;6.808;2023-12-07T07:57:14;101701.78;;;18.94;52.51
62617;BME280;62539;51.190;6.808;2023-12-07T07:59:39;101706.13;;;18.98;52.75
62617;BME280;62539;51.190;6.808;2023-12-07T08:02:05;101700.91;;;18.97;52.91
62617;BME280;62539;51.190;6.808;2023-12-07T08:04:30;101699.13;;;18.97;52.79
62617;BME280;62539;51.190;6.808;2023-12-07T08:06:55;101703.50;;;18.98;53.17
62617;BME280;62539;51.190;6.808;2023-12-07T08:09:21;101706.13;;;18.98;52.97
62617;BME280;62539;51.190;6.808;2023-12-07T08:11:46;101707.00;;;18.99;53.17
62617;BME280;62539;51.190;6.808;2023-12-07T08:14:12;101717.47;;;19.00;52.61
62617;BME280;62539;51.190;6.808;2023-12-07T08:16:38;101714.81;;;19.02;53.20
62617;BME280;62539;51.190;6.808;2023-12-07T08:19:03;101712.97;;;19.05;52.92
62617;BME280;62539;51.190;6.808;2023-12-07T08:21:28;101713.81;;;19.09;52.90
62617;BME280;62539;51.190;6.808;2023-12-07T08:23:54;101709.31;;;19.13;52.75
62617;BME280;62539;51.190;6.808;2023-12-07T08:26:20;101713.59;;;19.18;52.81
62617;BME280;62539;51.190;6.808;2023-12-07T08:28:45;101718.75;;;19.23;52.86
62617;BME280;62539;51.190;6.808;2023-12-07T08:31:11;101728.22;;;19.30;52.58
62617;BME280;62539;51.190;6.808;2023-12-07T08:33:37;101720.19;;;19.36;52.30
62617;BME280;62539;51.190;6.808;2023-12-07T08:36:06;101712.22;;;19.39;52.13
62617;BME280;62539;51.190;6.808;2023-12-07T08:38:32;101718.25;;;19.45;52.35
62617;BME280;62539;51.190;6.808;2023-12-07T08:40:57;101721.69;;;19.48;52.32
62617;BME280;62539;51.190;6.808;2023-12-07T08:43:23;101730.44;;;19.49;52.04
62617;BME280;62539;51.190;6.808;2023-12-07T08:45:52;101736.53;;;19.51;52.03
62617;BME280;62539;51.190;6.808;2023-12-07T08:48:19;101733.88;;;19.52;52.24
62617;BME280;62539;51.190;6.808;2023-12-07T08:50:45;101732.16;;;19.50;52.20
62617;BME280;62539;51.190;6.808;2023-12-07T08:53:11;101733.91;;;19.51;51.35
62617;BME280;62539;51.190;6.808;2023-12-07T08:55:36;101731.25;;;19.51;51.55
62617;BME280;62539;51.190;6.808;2023-12-07T08:58:02;101726.00;;;19.51;51.50
62617;BME280;62539;51.190;6.808;2023-12-07T09:00:30;101729.47;;;19.53;51.94
62617;BME280;62539;51.190;6.808;2023-12-07T09:02:57;101734.66;;;19.56;51.69
62617;BME280;62539;51.190;6.808;2023-12-07T09:05:22;101735.34;;;19.64;52.13
62617;BME280;62539;51.190;6.808;2023-12-07T09:07:48;101729.09;;;19.70;51.79
62617;BME280;62539;51.190;6.808;2023-12-07T09:10:13;101723.63;;;19.78;51.32
62617;BME280;62539;51.190;6.808;2023-12-07T09:12:39;101721.66;;;19.86;51.71
62617;BME280;62539;51.190;6.808;2023-12-07T09:15:05;101727.63;;;19.94;51.57
62617;BME280;62539;51.190;6.808;2023-12-07T09:17:35;101726.56;;;20.02;51.25
62617;BME280;62539;51.190;6.808;2023-12-07T09:20:07;101718.47;;;20.09;51.21
62617;BME280;62539;51.190;6.808;2023-12-07T09:22:46;101725.25;;;20.20;50.98
62617;BME280;62539;51.190;6.808;2023-12-07T09:25:12;101715.38;;;20.26;51.18
62617;BME280;62539;51.190;6.808;2023-12-07T09:27:39;101702.03;;;20.34;50.37
62617;BME280;62539;51.190;6.808;2023-12-07T09:30:06;101706.25;;;20.40;50.61
62617;BME280;62539;51.190;6.808;2023-12-07T09:32:35;101708.72;;;20.46;50.28
62617;BME280;62539;51.190;6.808;2023-12-07T09:35:09;101711.19;;;20.52;49.96
62617;BME280;62539;51.190;6.808;2023-12-07T09:37:44;101727.72;;;20.58;50.11
62617;BME280;62539;51.190;6.808;2023-12-07T09:40:21;101725.00;;;20.61;49.42
62617;BME280;62539;51.190;6.808;2023-12-07T09:42:48;101719.66;;;20.64;49.76
62617;BME280;62539;51.190;6.808;2023-12-07T09:45:15;101714.38;;;20.64;49.13
62617;BME280;62539;51.190;6.808;2023-12-07T09:47:48;101716.03;;;20.68;50.03
62617;BME280;62539;51.190;6.808;2023-12-07T09:50:17;101728.13;;;20.75;49.01
62617;BME280;62539;51.190;6.808;2023-12-07T09:52:43;101710.41;;;20.80;49.20
62617;BME280;62539;51.190;6.808;2023-12-07T09:55:09;101704.16;;;20.84;49.03
62617;BME280;62539;51.190;6.808;2023-12-07T09:57:37;101699.66;;;20.88;48.87
62617;BME280;62539;51.190;6.808;2023-12-07T10:00:03;101689.84;;;20.93;48.96
62617;BME280;62539;51.190;6.808;2023-12-07T10:02:30;101693.19;;;20.98;48.96
62617;BME280;62539;51.190;6.808;2023-12-07T10:05:05;101684.31;;;21.01;48.60
62617;BME280;62539;51.190;6.808;2023-12-07T10:07:36;101695.50;;;21.09;48.69
62617;BME280;62539;51.190;6.808;2023-12-07T10:10:06;101697.13;;;21.13;48.36
62617;BME280;62539;51.190;6.808;2023-12-07T10:12:32;101691.75;;;21.17;47.80
62617;BME280;62539;51.190;6.808;2023-12-07T10:15:00;101691.72;;;21.18;47.81
62617;BME280;62539;51.190;6.808;2023-12-07T10:17:45;101693.41;;;21.21;48.20
62617;BME280;62539;51.190;6.808;2023-12-07T10:20:13;101691.38;;;21.29;47.83
62617;BME280;62539;51.190;6.808;2023-12-07T10:22:44;101693.84;;;21.34;46.96
62617;BME280;62539;51.190;6.808;2023-12-07T10:25:11;101696.28;;;21.41;47.14
62617;BME280;62539;51.190;6.808;2023-12-07T10:27:38;101687.94;;;21.54;46.95
62617;BME280;62539;51.190;6.808;2023-12-07T10:30:09;101680.06;;;21.52;47.07
62617;BME280;62539;51.190;6.808;2023-12-07T10:32:39;101661.34;;;21.60;47.05
62617;BME280;62539;51.190;6.808;2023-12-07T10:35:08;101674.38;;;21.66;46.38
62617;BME280;62539;51.190;6.808;2023-12-07T10:37:34;101672.34;;;21.75;46.52
62617;BME280;62539;51.190;6.808;2023-12-07T10:39:59;101661.66;;;21.78;46.36
62617;BME280;62539;51.190;6.808;2023-12-07T10:42:25;101661.28;;;21.88;45.42
62617;BME280;62539;51.190;6.808;2023-12-07T10:45:05;101645.50;;;21.87;46.18
62617;BME280;62539;51.190;6.808;2023-12-07T10:47:37;101638.31;;;21.91;46.20
62617;BME280;62539;51.190;6.808;2023-12-07T10:50:07;101645.38;;;22.15;45.14
62617;BME280;62539;51.190;6.808;2023-12-07T10:52:37;101638.66;;;22.07;45.92
62617;BME280;62539;51.190;6.808;2023-12-07T10:55:17;101635.34;;;22.25;45.92
62617;BME280;62539;51.190;6.808;2023-12-07T10:57:46;101623.22;;;22.43;44.94
62617;BME280;62539;51.190;6.808;2023-12-07T11:00:12;101623.94;;;23.17;43.19
62617;BME280;62539;51.190;6.808;2023-12-07T11:02:38;101614.38;;;23.78;41.91
62617;BME280;62539;51.190;6.808;2023-12-07T11:05:06;101605.19;;;24.27;41.48
62617;BME280;62539;51.190;6.808;2023-12-07T11:07:48;101604.91;;;24.52;40.45
62617;BME280;62539;51.190;6.808;2023-12-07T11:10:25;101599.25;;;24.41;40.78
62617;BME280;62539;51.190;6.808;2023-12-07T11:13:02;101590.91;;;23.89;41.79
62617;BME280;62539;51.190;6.808;2023-12-07T11:15:34;101590.13;;;24.27;41.27
62617;BME280;62539;51.190;6.808;2023-12-07T11:18:02;101592.66;;;24.88;40.24
62617;BME280;62539;51.190;6.808;2023-12-07T11:20:45;101591.28;;;25.16;38.81
62617;BME280;62539;51.190;6.808;2023-12-07T11:23:16;101578.09;;;25.32;38.99
62617;BME280;62539;51.190;6.808;2023-12-07T11:25:46;101576.47;;;25.82;37.98
62617;BME280;62539;51.190;6.808;2023-12-07T11:28:13;101575.81;;;26.10;37.79
62617;BME280;62539;51.190;6.808;2023-12-07T11:30:42;101568.16;;;26.54;36.81
62617;BME280;62539;51.190;6.808;2023-12-07T11:33:09;101561.97;;;26.53;37.21
62617;BME280;62539;51.190;6.808;2023-12-07T11:36:05;101561.69;;;26.74;36.51
62617;BME280;62539;51.190;6.808;2023-12-07T11:38:32;101553.88;;;25.73;38.54
62617;BME280;62539;51.190;6.808;2023-12-07T11:40:59;101556.22;;;25.44;39.08
62617;BME280;62539;51.190;6.808;2023-12-07T11:46:03;101541.84;;;26.49;37.10
62617;BME280;62539;51.190;6.808;2023-12-07T11:48:29;101537.03;;;27.03;36.33
62617;BME280;62539;51.190;6.808;2023-12-07T11:51:05;101537.69;;;27.37;35.77
62617;BME280;62539;51.190;6.808;2023-12-07T11:53:36;101540.63;;;27.63;35.38
62617;BME280;62539;51.190;6.808;2023-12-07T11:56:04;101541.84;;;27.86;34.98
62617;BME280;62539;51.190;6.808;2023-12-07T11:58:33;101530.88;;;28.05;34.62
62617;BME280;62539;51.190;6.808;2023-12-07T12:01:00;101535.66;;;28.14;34.66
62617;BME280;62539;51.190;6.808;2023-12-07T12:03:28;101532.94;;;28.43;34.01
62617;BME280;62539;51.190;6.808;2023-12-07T12:05:55;101526.31;;;28.07;34.13
62617;BME280;62539;51.190;6.808;2023-12-07T12:08:21;101529.69;;;26.76;36.64
62617;BME280;62539;51.190;6.808;2023-12-07T12:10:48;101526.72;;;26.18;37.45
62617;BME280;62539;51.190;6.808;2023-12-07T12:13:16;101527.06;;;25.78;38.15
62617;BME280;62539;51.190;6.808;2023-12-07T12:15:42;101522.53;;;25.96;37.99
62617;BME280;62539;51.190;6.808;2023-12-07T12:18:09;101526.31;;;26.25;36.83
62617;BME280;62539;51.190;6.808;2023-12-07T12:20:35;101524.97;;;26.65;36.06
62617;BME280;62539;51.190;6.808;2023-12-07T12:23:01;101527.97;;;26.75;35.94
62617;BME280;62539;51.190;6.808;2023-12-07T12:25:31;101519.38;;;26.69;34.56
62617;BME280;62539;51.190;6.808;2023-12-07T12:27:58;101507.59;;;26.43;34.75
62617;BME280;62539;51.190;6.808;2023-12-07T12:30:29;101509.22;;;26.46;35.49
62617;BME280;62539;51.190;6.808;2023-12-07T12:32:56;101504.31;;;26.54;35.22
62617;BME280;62539;51.190;6.808;2023-12-07T12:35:22;101500.41;;;26.76;35.52
62617;BME280;62539;51.190;6.808;2023-12-07T12:37:48;101488.81;;;26.77;35.47
62617;BME280;62539;51.190;6.808;2023-12-07T12:40:16;101487.03;;;27.08;35.46
62617;BME280;62539;51.190;6.808;2023-12-07T12:42:47;101478.75;;;27.57;34.88
62617;BME280;62539;51.190;6.808;2023-12-07T12:45:15;101472.84;;;27.67;34.19
62617;BME280;62539;51.190;6.808;2023-12-07T12:47:42;101468.28;;;27.54;34.69
62617;BME280;62539;51.190;6.808;2023-12-07T12:50:09;101456.84;;;27.52;34.76
62617;BME280;62539;51.190;6.808;2023-12-07T12:52:36;101457.78;;;27.66;34.85